createdAt,value
2023-01-05T00:01:28.524Z,1.30
2023-01-05T00:03:55.863Z,1.33
2023-01-05T00:06:23.189Z,1.30
2023-01-05T00:08:50.354Z,1.10
2023-01-05T00:11:41.439Z,0.90
2023-01-05T00:14:35.271Z,1.00
2023-01-05T00:17:21.287Z,1.02
2023-01-05T00:20:07.047Z,1.10
2023-01-05T00:22:49.807Z,0.80
2023-01-05T00:25:20.019Z,1.95
2023-01-05T00:27:50.828Z,0.80
2023-01-05T00:30:21.000Z,0.52
2023-01-05T00:32:48.156Z,0.52
2023-01-05T00:35:16.629Z,0.30
2023-01-05T00:37:44.315Z,0.60
2023-01-05T00:40:15.096Z,0.60
2023-01-05T00:42:42.389Z,0.40
2023-01-05T00:45:12.548Z,0.30
2023-01-05T00:47:39.893Z,0.30
2023-01-05T00:50:08.533Z,0.40
2023-01-05T00:52:35.814Z,0.40
2023-01-05T00:55:02.869Z,0.50
2023-01-05T00:57:30.004Z,0.55
2023-01-05T00:59:57.023Z,0.57
2023-01-05T01:02:24.607Z,0.30
2023-01-05T01:04:51.981Z,0.30
2023-01-05T01:07:19.145Z,0.40
2023-01-05T01:09:46.375Z,0.40
2023-01-05T01:12:13.742Z,0.40
2023-01-05T01:14:41.316Z,0.45
2023-01-05T01:17:08.445Z,0.50
2023-01-05T01:19:36.631Z,0.40
2023-01-05T01:22:04.111Z,0.40
2023-01-05T01:24:32.570Z,0.30
2023-01-05T01:26:59.839Z,0.40
2023-01-05T01:29:27.070Z,0.40
2023-01-05T01:31:54.823Z,0.40
2023-01-05T01:34:23.547Z,0.30
2023-01-05T01:36:50.582Z,0.65
2023-01-05T01:39:17.942Z,0.60
2023-01-05T01:41:45.075Z,0.60
2023-01-05T01:44:49.860Z,0.40
2023-01-05T01:48:04.939Z,0.60
2023-01-05T01:50:33.669Z,0.60
2023-01-05T01:53:08.385Z,0.50
2023-01-05T01:55:36.871Z,0.50
2023-01-05T01:58:07.947Z,0.60
2023-01-05T02:00:35.668Z,1.00
2023-01-05T02:03:03.275Z,0.73
2023-01-05T02:05:32.869Z,0.70
2023-01-05T02:08:00.531Z,1.00
2023-01-05T02:10:43.853Z,0.88
2023-01-05T02:13:31.080Z,0.80
2023-01-05T02:16:25.696Z,0.95
2023-01-05T02:19:11.341Z,0.90
2023-01-05T02:21:59.628Z,0.95
2023-01-05T02:25:00.541Z,0.70
2023-01-05T02:27:48.275Z,1.20
2023-01-05T02:34:18.746Z,0.90
2023-01-05T02:36:55.120Z,0.82
2023-01-05T02:39:33.141Z,1.35
2023-01-05T02:42:14.544Z,1.40
2023-01-05T02:44:41.940Z,1.20
2023-01-05T02:47:28.866Z,1.33
2023-01-05T02:50:02.602Z,1.10
2023-01-05T02:52:37.835Z,1.45
2023-01-05T02:55:11.575Z,1.20
2023-01-05T02:57:50.641Z,1.35
2023-01-05T03:00:23.584Z,1.52
2023-01-05T03:02:59.365Z,1.27
2023-01-05T03:05:38.516Z,1.88
2023-01-05T03:08:25.046Z,1.23
2023-01-05T03:11:27.109Z,1.00
2023-01-05T03:14:14.241Z,1.48
2023-01-05T03:16:41.219Z,1.70
2023-01-05T03:19:30.950Z,1.10
2023-01-05T03:22:20.545Z,1.50
2023-01-05T03:25:07.376Z,1.50
2023-01-05T03:27:53.842Z,1.70
2023-01-05T03:30:44.760Z,1.55
2023-01-05T03:33:39.700Z,1.52
2023-01-05T03:36:09.259Z,1.52
2023-01-05T03:38:42.408Z,1.85
2023-01-05T03:41:10.446Z,1.23
2023-01-05T03:43:37.779Z,1.45
2023-01-05T03:46:12.455Z,1.63
2023-01-05T03:48:39.434Z,1.83
2023-01-05T03:51:06.727Z,1.90
2023-01-05T03:53:33.703Z,1.52
2023-01-05T03:56:00.832Z,1.60
2023-01-05T03:58:27.770Z,1.48
2023-01-05T04:00:54.784Z,1.88
2023-01-05T04:03:25.054Z,1.85
2023-01-05T04:05:54.864Z,1.83
2023-01-05T04:08:21.797Z,1.75
2023-01-05T04:10:48.665Z,1.73
2023-01-05T04:13:15.646Z,1.52
2023-01-05T04:15:42.838Z,1.90
2023-01-05T04:18:09.754Z,2.08
2023-01-05T04:20:36.793Z,1.90
2023-01-05T04:23:03.694Z,2.00
2023-01-05T04:25:30.776Z,1.95
2023-01-05T04:27:57.679Z,1.70
2023-01-05T04:30:24.648Z,1.90
2023-01-05T04:32:51.656Z,1.90
2023-01-05T04:35:18.595Z,1.73
2023-01-05T04:37:46.683Z,1.60
2023-01-05T04:40:13.628Z,1.88
2023-01-05T04:42:40.641Z,2.20
2023-01-05T04:45:08.170Z,1.45
2023-01-05T04:47:35.394Z,1.88
2023-01-05T04:50:02.541Z,1.70
2023-01-05T04:52:29.447Z,1.98
2023-01-05T04:54:56.389Z,1.95
2023-01-05T04:57:24.438Z,1.60
2023-01-05T04:59:54.225Z,1.90
2023-01-05T05:02:21.371Z,1.98
2023-01-05T05:04:48.544Z,1.83
2023-01-05T05:07:15.476Z,1.95
2023-01-05T05:09:43.167Z,2.08
2023-01-05T05:12:10.490Z,1.67
2023-01-05T05:14:37.480Z,1.73
2023-01-05T05:17:04.499Z,1.98
2023-01-05T05:19:31.649Z,1.65
2023-01-05T05:21:58.703Z,1.55
2023-01-05T05:24:25.548Z,1.73
2023-01-05T05:26:52.508Z,2.20
2023-01-05T05:29:19.379Z,1.40
2023-01-05T05:31:46.530Z,1.77
2023-01-05T05:34:13.506Z,2.17
2023-01-05T05:36:40.440Z,1.48
2023-01-05T05:39:07.361Z,1.98
2023-01-05T05:41:34.481Z,1.83
2023-01-05T05:44:02.901Z,1.55
2023-01-05T05:46:30.512Z,2.20
2023-01-05T05:48:59.336Z,1.50
2023-01-05T05:51:27.012Z,1.65
2023-01-05T05:53:54.150Z,2.00
2023-01-05T05:56:21.149Z,1.85
2023-01-05T05:58:48.166Z,1.80
2023-01-05T06:01:15.119Z,1.98
2023-01-05T06:03:42.152Z,1.98
2023-01-05T06:06:10.946Z,2.05
2023-01-05T06:08:41.031Z,1.40
2023-01-05T06:11:08.317Z,1.50
2023-01-05T06:13:35.228Z,1.60
2023-01-05T06:16:02.279Z,2.10
2023-01-05T06:18:32.987Z,2.03
2023-01-05T06:21:01.907Z,1.85
2023-01-05T06:23:29.254Z,1.90
2023-01-05T06:25:56.136Z,2.15
2023-01-05T06:28:23.651Z,1.60
2023-01-05T06:30:53.722Z,1.67
2023-01-05T06:33:20.836Z,1.48
2023-01-05T06:35:47.846Z,2.17
2023-01-05T06:38:17.951Z,1.58
2023-01-05T06:40:47.055Z,1.75
2023-01-05T06:43:13.834Z,1.23
2023-01-05T06:45:41.826Z,1.77
2023-01-05T06:48:12.310Z,1.60
2023-01-05T06:50:39.675Z,1.85
2023-01-05T06:53:06.756Z,1.33
2023-01-05T06:55:33.812Z,1.40
2023-01-05T06:58:01.556Z,1.50
2023-01-05T07:00:31.924Z,1.50
2023-01-05T07:02:58.990Z,1.83
2023-01-05T07:05:25.981Z,1.33
2023-01-05T07:07:52.895Z,1.88
2023-01-05T07:10:19.901Z,1.42
2023-01-05T07:12:51.021Z,1.33
2023-01-05T07:15:18.492Z,1.08
2023-01-05T07:17:46.716Z,1.60
2023-01-05T07:20:13.592Z,1.50
2023-01-05T07:22:40.520Z,1.35
2023-01-05T07:25:08.775Z,1.55
2023-01-05T07:27:36.079Z,1.35
2023-01-05T07:30:03.383Z,1.70
2023-01-05T07:32:30.283Z,1.55
2023-01-05T07:34:57.151Z,1.35
2023-01-05T07:37:25.279Z,1.48
2023-01-05T07:39:52.965Z,1.17
2023-01-05T07:42:20.073Z,1.20
2023-01-05T07:44:52.729Z,1.40
2023-01-05T07:47:19.636Z,1.13
2023-01-05T07:49:46.772Z,1.10
2023-01-05T07:52:13.822Z,1.70
2023-01-05T07:54:45.813Z,1.40
2023-01-05T07:57:12.706Z,1.20
2023-01-05T07:59:39.789Z,1.35
2023-01-05T08:02:07.135Z,1.35
2023-01-05T08:04:34.370Z,1.10
2023-01-05T08:07:09.881Z,1.60
2023-01-05T08:09:59.466Z,1.95
2023-01-05T08:12:29.108Z,1.92
2023-01-05T08:14:55.994Z,1.98
2023-01-05T08:17:22.819Z,1.40
2023-01-05T08:19:49.866Z,1.90
2023-01-05T08:22:16.796Z,1.65
2023-01-05T08:24:43.676Z,1.20
2023-01-05T08:27:10.710Z,2.42
2023-01-05T08:29:37.672Z,2.38
2023-01-05T08:32:04.929Z,1.70
2023-01-05T08:34:34.839Z,1.80
2023-01-05T08:37:06.577Z,2.15
2023-01-05T08:39:37.008Z,1.45
2023-01-05T08:42:04.023Z,1.55
2023-01-05T08:44:30.993Z,2.17
2023-01-05T08:46:57.991Z,1.90
2023-01-05T08:49:25.170Z,1.73
2023-01-05T08:51:52.118Z,2.25
2023-01-05T08:54:19.363Z,1.83
2023-01-05T08:56:52.628Z,1.60
2023-01-05T08:59:19.684Z,2.25
2023-01-05T09:01:51.579Z,2.17
2023-01-05T09:04:18.646Z,1.60
2023-01-05T09:06:50.403Z,2.25
2023-01-05T09:09:18.040Z,2.38
2023-01-05T09:11:46.177Z,1.90
2023-01-05T09:14:16.946Z,1.95
2023-01-05T09:19:31.199Z,1.30
2023-01-05T09:21:59.854Z,1.60
2023-01-05T09:24:26.882Z,1.60
2023-01-05T09:26:54.612Z,1.95
2023-01-05T09:29:22.526Z,1.90
2023-01-05T09:31:52.216Z,1.70
2023-01-05T09:34:19.583Z,1.48
2023-01-05T09:36:46.723Z,1.73
2023-01-05T09:39:18.048Z,1.73
2023-01-05T09:41:49.992Z,2.00
2023-01-05T09:44:33.850Z,1.50
2023-01-05T09:47:05.971Z,1.63
2023-01-05T09:49:34.967Z,1.70
2023-01-05T09:52:09.224Z,1.67
2023-01-05T09:54:37.943Z,1.73
2023-01-05T09:57:09.643Z,1.45
2023-01-05T09:59:52.826Z,2.10
2023-01-05T10:02:49.237Z,2.50
2023-01-05T10:05:16.677Z,1.63
2023-01-05T10:07:50.140Z,2.28
2023-01-05T10:10:45.096Z,1.33
2023-01-05T10:13:31.724Z,1.65
2023-01-05T10:15:58.634Z,1.70
2023-01-05T10:18:27.952Z,2.22
2023-01-05T10:21:15.518Z,2.28
2023-01-05T10:24:13.473Z,2.40
2023-01-05T10:27:24.561Z,2.05
2023-01-05T10:30:10.577Z,2.20
2023-01-05T10:32:49.973Z,2.42
2023-01-05T10:35:50.525Z,2.35
2023-01-05T10:38:22.457Z,2.05
2023-01-05T10:41:08.770Z,2.17
2023-01-05T11:09:46.477Z,2.33
2023-01-05T11:12:26.326Z,1.75
2023-01-05T11:15:02.770Z,2.00
2023-01-05T11:19:58.074Z,2.40
2023-01-05T11:22:35.832Z,2.30
2023-01-05T11:25:18.614Z,2.30
2023-01-05T11:27:50.595Z,2.42
2023-01-05T11:30:25.736Z,2.55
2023-01-05T11:32:53.065Z,2.67
2023-01-05T11:35:32.323Z,2.80
2023-01-05T11:38:00.659Z,2.60
2023-01-05T11:40:34.570Z,2.28
2023-01-05T11:43:11.886Z,2.20
2023-01-05T11:45:47.180Z,2.50
2023-01-05T11:48:24.429Z,2.35
2023-01-05T11:50:53.917Z,2.40
2023-01-05T11:53:34.470Z,2.50
2023-01-05T11:56:03.180Z,2.38
2023-01-05T12:24:10.235Z,1.88
2023-01-05T12:27:15.636Z,2.10
2023-01-05T12:36:35.590Z,1.83
2023-01-05T12:39:15.616Z,2.00
2023-01-05T12:42:31.863Z,2.50
2023-01-05T12:45:31.764Z,2.20
2023-01-05T12:48:20.880Z,2.17
2023-01-05T12:51:03.696Z,2.60
2023-01-05T12:53:36.606Z,2.28
2023-01-05T12:56:37.519Z,2.38
2023-01-05T12:59:23.832Z,2.15
2023-01-05T13:02:21.240Z,2.47
2023-01-05T13:05:14.490Z,2.78
2023-01-05T13:07:47.502Z,2.28
2023-01-05T13:10:29.648Z,2.63
2023-01-05T13:13:04.882Z,2.15
2023-01-05T13:15:42.833Z,2.00
2023-01-05T13:18:20.109Z,2.20
2023-01-05T13:21:08.112Z,2.20
2023-01-05T13:24:05.849Z,1.50
2023-01-05T13:26:38.050Z,1.67
2023-01-05T13:29:06.788Z,2.17
2023-01-05T13:32:08.238Z,1.83
2023-01-05T13:34:48.503Z,2.05
2023-01-05T13:37:39.465Z,1.63
2023-01-05T13:40:54.734Z,2.05
2023-01-05T13:43:42.304Z,1.90
2023-01-05T13:46:27.552Z,2.17
2023-01-05T13:49:25.754Z,2.03
2023-01-05T13:52:18.355Z,2.00
2023-01-05T13:55:00.365Z,2.20
2023-01-05T13:57:38.846Z,1.90
2023-01-05T14:00:38.778Z,2.08
2023-01-05T14:03:40.912Z,2.55
2023-01-05T14:06:26.916Z,1.98
2023-01-05T14:09:10.554Z,2.53
2023-01-05T14:11:37.639Z,2.83
2023-01-05T14:14:11.665Z,2.28
2023-01-05T14:16:38.738Z,2.25
2023-01-05T14:19:23.056Z,1.83
2023-01-05T14:21:50.013Z,2.05
2023-01-05T14:24:33.515Z,1.77
2023-01-05T14:27:09.671Z,2.03
2023-01-05T14:29:48.033Z,2.47
2023-01-05T14:32:26.640Z,2.28
2023-01-05T14:34:59.788Z,2.67
2023-01-05T14:37:34.647Z,2.40
2023-01-05T14:40:08.707Z,2.03
2023-01-05T14:42:41.219Z,3.03
2023-01-05T14:45:20.649Z,2.70
2023-01-05T14:47:54.320Z,2.53
2023-01-05T14:50:47.495Z,2.45
2023-01-05T14:53:20.791Z,2.30
2023-01-05T14:55:54.005Z,2.22
2023-01-05T14:58:36.756Z,2.58
2023-01-05T15:01:38.159Z,2.20
2023-01-05T15:04:16.596Z,2.60
2023-01-05T15:06:57.782Z,2.22
2023-01-05T15:09:51.963Z,2.55
2023-01-05T15:12:47.197Z,2.55
2023-01-05T15:15:32.381Z,2.90
2023-01-05T15:18:20.900Z,3.15
2023-01-05T15:21:24.905Z,2.80
2023-01-05T15:24:10.658Z,2.70
2023-01-05T15:26:57.411Z,2.78
2023-01-05T15:30:12.108Z,2.70
2023-01-05T15:32:45.056Z,2.42
2023-01-05T15:35:19.083Z,3.17
2023-01-05T15:37:48.694Z,2.63
2023-01-05T15:40:21.840Z,2.97
2023-01-05T15:42:52.793Z,2.90
2023-01-05T15:45:26.297Z,3.15
2023-01-05T15:47:54.581Z,2.70
2023-01-05T15:50:29.661Z,2.80
2023-01-05T15:52:59.198Z,2.88
2023-01-05T15:55:28.323Z,2.50
2023-01-05T15:57:58.649Z,2.88
2023-01-05T16:00:31.731Z,2.13
2023-01-05T16:02:59.612Z,2.95
2023-01-05T16:05:28.929Z,2.90
2023-01-05T16:08:03.539Z,2.47
2023-01-05T16:10:38.648Z,2.97
2023-01-05T16:13:16.539Z,2.70
2023-01-05T16:15:46.482Z,2.80
2023-01-05T16:18:18.350Z,3.25
2023-01-05T16:20:48.073Z,3.30
2023-01-05T16:23:38.459Z,3.65
2023-01-05T16:26:06.487Z,3.17
2023-01-05T16:28:33.651Z,2.70
2023-01-05T16:31:12.101Z,3.10
2023-01-05T16:33:40.549Z,3.00
2023-01-05T16:36:22.769Z,3.47
2023-01-05T16:38:49.826Z,3.15
2023-01-05T16:41:26.945Z,3.03
2023-01-05T16:44:03.621Z,4.00
2023-01-05T16:46:39.875Z,5.32
2023-01-05T16:49:31.909Z,3.30
2023-01-05T16:52:00.166Z,3.10
2023-01-05T16:54:37.231Z,3.55
2023-01-05T16:57:29.217Z,3.53
2023-01-05T16:59:56.687Z,3.30
2023-01-05T17:02:47.795Z,5.97
2023-01-05T17:05:19.088Z,3.10
2023-01-05T17:07:57.227Z,3.78
2023-01-05T17:10:26.137Z,3.88
2023-01-05T17:13:01.815Z,3.65
2023-01-05T17:15:35.481Z,3.47
2023-01-05T17:18:18.774Z,3.28
2023-01-05T17:20:46.730Z,3.72
2023-01-05T17:23:36.636Z,3.38
2023-01-05T17:26:09.768Z,3.63
2023-01-05T17:28:37.104Z,3.45
2023-01-05T17:31:04.660Z,3.50
2023-01-05T17:33:31.662Z,3.28
2023-01-05T17:35:59.088Z,3.22
2023-01-05T17:38:26.224Z,2.97
2023-01-05T17:40:53.548Z,2.80
2023-01-05T17:43:21.021Z,3.50
2023-01-05T17:45:48.269Z,3.40
2023-01-05T17:48:16.316Z,3.03
2023-01-05T17:50:44.929Z,3.47
2023-01-05T17:53:12.189Z,3.03
2023-01-05T17:55:41.870Z,2.92
2023-01-05T17:58:11.524Z,3.00
2023-01-05T18:00:48.430Z,2.90
2023-01-05T18:03:17.202Z,2.70
2023-01-05T18:05:44.868Z,3.08
2023-01-05T18:08:12.634Z,2.78
2023-01-05T18:13:13.875Z,3.13
2023-01-05T18:15:43.270Z,2.92
2023-01-05T18:18:11.330Z,3.30
2023-01-05T18:20:41.403Z,2.70
2023-01-05T18:23:10.009Z,3.17
2023-01-05T18:25:39.059Z,2.97
2023-01-05T18:28:06.298Z,2.33
2023-01-05T18:30:33.918Z,2.55
2023-01-05T18:33:01.215Z,2.35
2023-01-05T18:35:28.540Z,2.75
2023-01-05T18:40:28.516Z,2.95
2023-01-05T18:42:55.752Z,2.92
2023-01-05T18:45:31.908Z,2.97
2023-01-05T18:47:59.564Z,2.72
2023-01-05T18:50:26.857Z,2.92
2023-01-05T18:52:53.911Z,3.00
2023-01-05T18:55:21.215Z,2.80
2023-01-05T18:57:48.145Z,2.63
2023-01-05T19:00:16.127Z,2.70
2023-01-05T19:02:43.363Z,2.80
2023-01-05T19:05:10.415Z,3.30
2023-01-05T19:07:38.916Z,3.10
2023-01-05T19:10:06.541Z,3.10
2023-01-05T19:12:33.596Z,3.00
2023-01-05T19:15:00.582Z,2.85
2023-01-05T19:17:27.749Z,3.38
2023-01-05T19:19:55.391Z,3.63
2023-01-05T19:22:22.371Z,2.97
2023-01-05T19:24:49.289Z,3.25
2023-01-05T19:27:16.463Z,3.25
2023-01-05T19:29:43.484Z,3.28
2023-01-05T19:32:10.659Z,3.03
2023-01-05T19:34:38.648Z,2.80
2023-01-05T19:37:06.419Z,3.13
2023-01-05T19:39:33.479Z,2.45
2023-01-05T19:42:00.674Z,2.90
2023-01-05T19:44:27.792Z,3.63
2023-01-05T19:46:54.817Z,2.85
2023-01-05T19:49:26.654Z,2.33
2023-01-05T19:51:54.207Z,3.75
2023-01-05T19:54:26.349Z,2.72
2023-01-05T19:56:54.950Z,3.08
2023-01-05T19:59:33.223Z,2.50
2023-01-05T20:02:01.843Z,3.08
2023-01-05T20:04:30.077Z,3.05
2023-01-05T20:06:57.918Z,3.10
2023-01-05T20:09:25.131Z,2.70
2023-01-05T20:11:59.415Z,3.05
2023-01-05T20:14:33.401Z,2.95
2023-01-05T20:17:03.403Z,3.22
2023-01-05T20:19:32.992Z,3.60
2023-01-05T20:22:01.711Z,3.38
2023-01-05T20:24:30.888Z,2.92
2023-01-05T20:27:04.601Z,3.35
2023-01-05T20:29:31.942Z,2.97
2023-01-05T20:32:06.178Z,3.22
2023-01-05T20:34:36.432Z,2.60
2023-01-05T20:37:07.413Z,3.20
2023-01-05T20:39:37.985Z,3.22
2023-01-05T20:42:05.499Z,2.72
2023-01-05T20:44:38.340Z,2.85
2023-01-05T20:47:06.745Z,2.85
2023-01-05T20:49:37.216Z,2.70
2023-01-05T20:52:05.272Z,3.20
2023-01-05T20:54:32.722Z,3.17
2023-01-05T20:56:59.839Z,2.50
2023-01-05T20:59:30.118Z,2.67
2023-01-05T21:01:58.102Z,2.50
2023-01-05T21:04:26.909Z,2.72
2023-01-05T21:06:59.492Z,2.70
2023-01-05T21:09:29.513Z,2.70
2023-01-05T21:11:57.780Z,2.80
2023-01-05T21:14:24.894Z,3.13
2023-01-05T21:16:54.178Z,3.38
2023-01-05T21:19:24.937Z,2.60
2023-01-05T21:21:55.264Z,2.50
2023-01-05T21:24:23.931Z,2.50
2023-01-05T21:26:50.966Z,2.80
2023-01-05T21:29:20.394Z,2.55
2023-01-05T21:31:47.397Z,2.40
2023-01-05T21:34:15.300Z,2.72
2023-01-05T21:36:45.382Z,2.58
2023-01-05T21:39:20.446Z,2.38
2023-01-05T21:42:07.299Z,3.03
2023-01-05T21:44:34.960Z,2.63
2023-01-05T21:47:05.607Z,2.53
2023-01-05T21:49:32.663Z,2.42
2023-01-05T21:52:17.980Z,2.35
2023-01-05T21:55:03.526Z,2.17
2023-01-05T21:57:30.412Z,2.70
2023-01-05T21:59:57.298Z,3.20
2023-01-05T22:02:24.363Z,2.83
2023-01-05T22:04:51.570Z,2.60
2023-01-05T22:07:18.683Z,2.65
2023-01-05T22:09:45.573Z,2.67
2023-01-05T22:12:12.619Z,2.67
2023-01-05T22:14:39.545Z,3.17
2023-01-05T22:17:08.348Z,2.50
2023-01-05T22:19:35.557Z,2.92
2023-01-05T22:22:03.037Z,2.60
2023-01-05T22:24:30.013Z,2.85
2023-01-05T22:26:57.128Z,3.55
2023-01-05T22:29:24.787Z,3.33
2023-01-05T22:31:51.960Z,3.03
2023-01-05T22:34:19.082Z,2.90
2023-01-05T22:36:46.032Z,2.90
2023-01-05T22:39:13.339Z,2.83
2023-01-05T22:41:40.841Z,3.28
2023-01-05T22:44:08.031Z,3.10
2023-01-05T22:46:34.973Z,3.25
2023-01-05T22:49:02.253Z,3.15
2023-01-05T22:51:35.484Z,3.20
2023-01-05T22:54:04.465Z,3.22
2023-01-05T22:56:32.804Z,3.50
2023-01-05T22:59:00.690Z,3.17
2023-01-05T23:01:30.639Z,2.97
2023-01-05T23:04:00.799Z,3.42
2023-01-05T23:06:28.606Z,3.22
2023-01-05T23:08:56.209Z,3.33
2023-01-05T23:11:29.018Z,3.80
2023-01-05T23:13:57.663Z,3.53
2023-01-05T23:16:25.872Z,3.50
2023-01-05T23:18:53.135Z,3.72
2023-01-05T23:21:21.892Z,3.72
2023-01-05T23:23:51.268Z,3.47
2023-01-05T23:26:18.147Z,3.67
2023-01-05T23:28:45.444Z,3.85
2023-01-05T23:31:14.763Z,3.55
2023-01-05T23:33:43.700Z,3.70
2023-01-05T23:36:12.463Z,3.78
2023-01-05T23:38:40.163Z,4.57
2023-01-05T23:41:08.507Z,4.10
2023-01-05T23:43:38.832Z,4.30
2023-01-05T23:46:11.960Z,4.38
2023-01-05T23:48:39.622Z,3.97
2023-01-05T23:51:11.423Z,4.18
2023-01-05T23:53:38.474Z,4.25
2023-01-05T23:56:11.716Z,4.25
2023-01-05T23:58:39.359Z,4.10
